createdAt,value
2022-09-02T00:00:01.289Z,26.91
2022-09-02T00:01:01.279Z,26.75
2022-09-02T00:02:01.409Z,26.75
2022-09-02T00:03:01.475Z,26.75
2022-09-02T00:04:01.276Z,26.75
2022-09-02T00:05:01.261Z,26.91
2022-09-02T00:06:01.242Z,26.75
2022-09-02T00:07:01.246Z,26.75
2022-09-02T00:08:01.217Z,26.75
2022-09-02T00:09:01.208Z,26.75
2022-09-02T00:10:01.206Z,26.59
2022-09-02T00:11:01.199Z,26.75
2022-09-02T00:12:01.200Z,26.75
2022-09-02T00:13:01.189Z,26.75
2022-09-02T00:14:02.130Z,26.75
2022-09-02T00:15:01.171Z,26.75
2022-09-02T00:16:01.151Z,26.91
2022-09-02T00:17:02.242Z,26.91
2022-09-02T00:18:01.146Z,26.75
2022-09-02T00:19:01.152Z,26.59
2022-09-02T00:20:01.132Z,26.91
2022-09-02T00:21:01.120Z,26.75
2022-09-02T00:22:01.122Z,26.75
2022-09-02T00:23:01.112Z,26.75
2022-09-02T00:24:01.107Z,26.75
2022-09-02T00:25:01.096Z,26.91
2022-09-02T00:26:01.085Z,26.59
2022-09-02T00:27:01.076Z,26.75
2022-09-02T00:28:01.083Z,26.75
2022-09-02T00:29:02.065Z,26.75
2022-09-02T00:30:01.560Z,26.59
2022-09-02T00:32:50.924Z,26.75
2022-09-02T00:33:50.912Z,26.75
2022-09-02T00:34:50.901Z,26.75
2022-09-02T00:35:50.889Z,26.43
2022-09-02T00:36:50.897Z,26.59
2022-09-02T00:37:50.877Z,26.75
2022-09-02T00:38:51.966Z,26.75
2022-09-02T00:39:51.963Z,26.75
2022-09-02T00:40:52.015Z,26.59
2022-09-02T00:41:51.932Z,26.75
2022-09-02T00:42:51.924Z,26.75
2022-09-02T00:43:51.918Z,26.59
2022-09-02T00:44:51.919Z,26.91
2022-09-02T00:45:51.949Z,26.75
2022-09-02T00:46:51.903Z,26.75
2022-09-02T00:47:51.906Z,26.91
2022-09-02T00:48:51.890Z,26.75
2022-09-02T00:49:51.885Z,26.59
2022-09-02T00:50:52.868Z,26.75
2022-09-02T00:51:51.857Z,26.59
2022-09-02T00:52:51.850Z,26.91
2022-09-02T00:53:51.863Z,26.75
2022-09-02T00:54:51.835Z,26.75
2022-09-02T00:55:51.822Z,26.59
2022-09-02T00:56:53.868Z,26.59
2022-09-02T00:57:51.814Z,26.75
2022-09-02T00:58:51.800Z,26.75
2022-09-02T00:59:51.799Z,26.59
2022-09-02T01:00:51.832Z,26.75
2022-09-02T01:01:52.044Z,26.75
2022-09-02T01:02:51.775Z,26.75
2022-09-02T01:03:51.752Z,26.75
2022-09-02T01:04:52.776Z,26.75
2022-09-02T01:05:51.744Z,26.59
2022-09-02T01:06:51.741Z,26.75
2022-09-02T01:07:51.734Z,26.91
2022-09-02T01:08:51.734Z,26.75
2022-09-02T01:09:52.295Z,26.75
2022-09-02T01:10:51.716Z,26.75
2022-09-02T01:11:51.701Z,26.91
2022-09-02T01:12:51.704Z,26.75
2022-09-02T01:13:51.691Z,26.75
2022-09-02T01:14:51.670Z,26.75
2022-09-02T01:15:51.746Z,26.59
2022-09-02T01:16:51.669Z,26.75
2022-09-02T01:17:51.652Z,26.59
2022-09-02T01:18:51.648Z,26.91
2022-09-02T01:19:51.639Z,26.59
2022-09-02T01:20:51.628Z,26.91
2022-09-02T01:21:51.622Z,26.75
2022-09-02T01:22:51.619Z,26.75
2022-09-02T01:23:51.616Z,26.59
2022-09-02T01:24:51.598Z,26.59
2022-09-02T01:25:51.592Z,26.91
2022-09-02T01:26:51.582Z,26.75
2022-09-02T01:27:51.579Z,26.75
2022-09-02T01:28:51.574Z,26.75
2022-09-02T01:29:51.557Z,26.91
2022-09-02T01:30:51.551Z,27.07
2022-09-02T01:31:51.635Z,26.75
2022-09-02T01:32:51.548Z,26.75
2022-09-02T01:33:51.530Z,26.59
2022-09-02T01:34:51.523Z,26.59
2022-09-02T01:35:51.513Z,27.07
2022-09-02T01:36:51.504Z,26.91
2022-09-02T01:37:55.795Z,26.75
2022-09-02T01:38:51.501Z,26.75
2022-09-02T01:39:51.491Z,26.75
2022-09-02T01:40:51.501Z,26.75
2022-09-02T01:41:51.469Z,26.91
2022-09-02T01:42:51.487Z,26.75
2022-09-02T01:43:51.477Z,26.75
2022-09-02T01:44:51.449Z,26.75
2022-09-02T01:45:51.447Z,26.43
2022-09-02T01:46:51.480Z,26.75
2022-09-02T01:47:51.428Z,26.75
2022-09-02T01:48:51.424Z,26.75
2022-09-02T01:49:51.421Z,26.75
2022-09-02T01:50:51.428Z,26.75
2022-09-02T01:51:51.405Z,26.75
2022-09-02T01:52:51.395Z,26.59
2022-09-02T01:53:51.397Z,26.59
2022-09-02T01:54:51.387Z,26.59
2022-09-02T01:55:51.390Z,26.59
2022-09-02T01:56:51.362Z,27.07
2022-09-02T01:57:51.350Z,26.91
2022-09-02T01:58:51.341Z,26.75
2022-09-02T01:59:51.334Z,26.75
2022-09-02T02:00:51.395Z,26.75
2022-09-02T02:01:51.348Z,26.59
2022-09-02T02:02:51.308Z,26.75
2022-09-02T02:03:51.315Z,26.91
2022-09-02T02:04:51.294Z,26.59
2022-09-02T02:05:51.292Z,26.91
2022-09-02T02:06:53.386Z,26.59
2022-09-02T02:07:51.271Z,26.75
2022-09-02T02:08:51.265Z,26.59
2022-09-02T02:09:51.253Z,26.75
2022-09-02T02:10:51.254Z,26.91
2022-09-02T02:11:51.256Z,26.75
2022-09-02T02:12:51.235Z,26.75
2022-09-02T02:13:51.221Z,26.75
2022-09-02T02:14:51.212Z,26.75
2022-09-02T02:15:51.222Z,26.59
2022-09-02T02:16:51.210Z,26.75
2022-09-02T02:17:51.194Z,26.75
2022-09-02T02:18:51.186Z,26.91
2022-09-02T02:19:51.184Z,26.75
2022-09-02T02:20:51.813Z,26.59
2022-09-02T02:21:51.165Z,26.75
2022-09-02T02:22:51.155Z,26.75
2022-09-02T02:23:51.147Z,26.75
2022-09-02T02:24:51.142Z,26.91
2022-09-02T02:25:51.126Z,26.59
2022-09-02T02:26:51.124Z,26.75
2022-09-02T02:27:51.111Z,26.75
2022-09-02T02:28:51.108Z,26.59
2022-09-02T02:29:51.114Z,26.59
2022-09-02T02:30:51.090Z,26.43
2022-09-02T02:31:51.209Z,26.59
2022-09-02T02:32:51.072Z,26.75
2022-09-02T02:33:51.071Z,26.75
2022-09-02T02:34:51.070Z,26.59
2022-09-02T02:35:51.047Z,26.75
2022-09-02T02:36:51.048Z,26.75
2022-09-02T02:37:51.042Z,26.59
2022-09-02T02:38:51.034Z,26.91
2022-09-02T02:39:51.017Z,26.91
2022-09-02T02:40:51.977Z,26.91
2022-09-02T02:41:50.999Z,26.75
2022-09-02T02:42:51.005Z,25.78
2022-09-02T02:43:50.990Z,26.75
2022-09-02T02:44:50.978Z,26.75
2022-09-02T02:45:50.965Z,26.75
2022-09-02T02:46:51.061Z,26.59
2022-09-02T02:47:50.946Z,26.75
2022-09-02T02:48:50.953Z,26.75
2022-09-02T02:49:50.941Z,26.75
2022-09-02T02:50:50.933Z,27.07
2022-09-02T02:51:50.916Z,26.91
2022-09-02T02:52:50.914Z,26.75
2022-09-02T02:53:50.904Z,26.91
2022-09-02T02:54:50.905Z,26.91
2022-09-02T02:55:51.391Z,27.07
2022-09-02T02:56:50.890Z,36.90
2022-09-02T02:57:50.875Z,35.77
2022-09-02T02:58:50.863Z,35.77
2022-09-02T02:59:50.870Z,40.61
2022-09-02T03:00:50.848Z,42.38
2022-09-02T03:01:50.922Z,38.03
2022-09-02T03:02:50.962Z,36.90
2022-09-02T03:03:50.826Z,38.51
2022-09-02T03:04:50.826Z,44.96
2022-09-02T03:05:50.815Z,40.77
2022-09-02T03:06:50.811Z,37.22
2022-09-02T03:07:50.792Z,38.83
2022-09-02T03:08:51.155Z,43.67
2022-09-02T03:09:50.788Z,45.28
2022-09-02T03:10:50.780Z,48.34
2022-09-02T03:11:50.766Z,46.57
2022-09-02T03:12:50.761Z,40.61
2022-09-02T03:13:51.325Z,41.25
2022-09-02T03:14:50.744Z,39.48
2022-09-02T03:15:50.806Z,38.83
2022-09-02T03:16:50.732Z,40.28
2022-09-02T03:17:50.734Z,41.25
2022-09-02T03:18:50.711Z,27.07
2022-09-02T03:19:50.711Z,26.91
2022-09-02T03:20:50.703Z,26.75
2022-09-02T03:21:50.684Z,26.75
2022-09-02T03:22:50.677Z,26.75
2022-09-02T03:23:50.660Z,26.75
2022-09-02T03:24:51.679Z,26.75
2022-09-02T03:25:50.669Z,26.75
2022-09-02T03:26:50.649Z,26.75
2022-09-02T03:27:50.649Z,26.91
2022-09-02T03:28:50.631Z,26.59
2022-09-02T03:29:50.630Z,26.75
2022-09-02T03:30:50.664Z,26.59
2022-09-02T03:31:50.612Z,26.75
2022-09-02T03:32:50.622Z,26.91
2022-09-02T03:33:50.595Z,26.75
2022-09-02T03:34:50.582Z,26.59
2022-09-02T03:35:50.586Z,26.75
2022-09-02T03:36:50.570Z,26.75
2022-09-02T03:37:50.600Z,26.75
2022-09-02T03:38:50.557Z,26.59
2022-09-02T03:39:50.559Z,26.75
2022-09-02T03:40:50.619Z,26.59
2022-09-02T03:41:50.527Z,26.59
2022-09-02T03:42:50.517Z,26.75
2022-09-02T03:43:50.516Z,26.59
2022-09-02T03:44:50.510Z,26.75
2022-09-02T03:45:50.575Z,26.75
2022-09-02T03:46:50.500Z,26.91
2022-09-02T03:47:50.479Z,26.91
2022-09-02T03:48:50.514Z,26.75
2022-09-02T03:49:50.466Z,26.91
2022-09-02T03:50:50.454Z,26.91
2022-09-02T03:51:50.447Z,26.75
2022-09-02T03:52:51.445Z,26.75
2022-09-02T03:53:50.441Z,26.75
2022-09-02T03:54:50.427Z,26.75
2022-09-02T03:55:50.833Z,26.75
2022-09-02T03:56:50.422Z,26.75
2022-09-02T03:57:50.463Z,26.59
2022-09-02T03:58:50.399Z,26.59
2022-09-02T03:59:50.919Z,26.75
2022-09-02T04:00:50.403Z,26.59
2022-09-02T04:01:50.406Z,26.59
2022-09-02T04:02:50.504Z,26.75
2022-09-02T04:03:50.361Z,26.75
2022-09-02T04:04:50.351Z,26.75
2022-09-02T04:05:50.373Z,26.75
2022-09-02T04:06:50.333Z,26.75
2022-09-02T04:07:50.324Z,26.91
2022-09-02T04:08:50.329Z,26.75
2022-09-02T04:09:50.314Z,26.75
2022-09-02T04:10:50.301Z,26.75
2022-09-02T04:11:50.312Z,26.75
2022-09-02T04:12:50.308Z,26.59
2022-09-02T04:13:50.922Z,26.75
2022-09-02T04:14:50.338Z,26.59
2022-09-02T04:15:50.308Z,26.59
2022-09-02T04:16:50.265Z,26.91
2022-09-02T04:17:50.277Z,26.59
2022-09-02T04:18:50.245Z,26.75
2022-09-02T04:19:50.237Z,26.75
2022-09-02T04:20:50.219Z,26.75
2022-09-02T04:21:50.219Z,26.59
2022-09-02T04:22:50.205Z,26.75
2022-09-02T04:23:50.202Z,26.59
2022-09-02T04:24:50.198Z,27.07
2022-09-02T04:25:50.182Z,26.59
2022-09-02T04:26:50.169Z,26.59
2022-09-02T04:27:50.165Z,26.75
2022-09-02T04:28:50.181Z,26.59
2022-09-02T04:29:50.157Z,26.75
2022-09-02T04:30:50.225Z,26.59
2022-09-02T04:31:50.133Z,26.75
2022-09-02T04:32:50.133Z,26.75
2022-09-02T04:33:50.116Z,26.75
2022-09-02T04:34:50.116Z,26.59
2022-09-02T04:35:50.106Z,26.75
2022-09-02T04:36:50.111Z,26.75
2022-09-02T04:37:50.089Z,26.75
2022-09-02T04:38:50.083Z,26.75
2022-09-02T04:39:50.062Z,26.75
2022-09-02T04:40:51.124Z,26.75
2022-09-02T04:41:50.053Z,26.59
2022-09-02T04:42:50.059Z,26.59
2022-09-02T04:43:51.048Z,26.75
2022-09-02T04:44:50.040Z,26.75
2022-09-02T04:45:50.116Z,48.82
2022-09-02T04:46:50.395Z,48.34
2022-09-02T04:47:51.011Z,45.92
2022-09-02T04:48:50.013Z,47.21
2022-09-02T04:49:49.993Z,49.15
2022-09-02T04:50:49.983Z,51.40
2022-09-02T04:51:49.989Z,48.66
2022-09-02T04:52:49.971Z,49.79
2022-09-02T04:53:49.962Z,48.02
2022-09-02T04:54:49.957Z,48.66
2022-09-02T04:55:51.244Z,51.56
2022-09-02T04:56:50.950Z,46.57
2022-09-02T04:57:49.926Z,46.89
2022-09-02T04:58:49.981Z,46.08
2022-09-02T04:59:49.911Z,51.24
2022-09-02T05:00:49.920Z,51.08
2022-09-02T05:01:50.040Z,44.31
2022-09-02T05:02:49.941Z,51.40
2022-09-02T05:03:49.889Z,50.43
2022-09-02T05:04:49.905Z,53.98
2022-09-02T05:05:49.874Z,48.98
2022-09-02T05:06:49.871Z,47.05
2022-09-02T05:07:49.853Z,46.89
2022-09-02T05:08:49.872Z,51.40
2022-09-02T05:09:50.564Z,50.43
2022-09-02T05:10:49.836Z,49.79
2022-09-02T05:11:49.829Z,44.47
2022-09-02T05:12:49.816Z,49.95
2022-09-02T05:13:49.809Z,47.70
2022-09-02T05:14:49.809Z,48.66
2022-09-02T05:15:49.877Z,50.92
2022-09-02T05:16:49.786Z,48.66
2022-09-02T05:17:49.771Z,50.92
2022-09-02T05:18:49.764Z,48.66
2022-09-02T05:19:49.780Z,49.79
2022-09-02T05:20:49.748Z,48.66
2022-09-02T05:21:49.747Z,53.66
2022-09-02T05:22:50.740Z,50.60
2022-09-02T05:23:49.722Z,45.44
2022-09-02T05:24:49.717Z,49.47
2022-09-02T05:25:49.718Z,47.70
2022-09-02T05:26:50.440Z,46.25
2022-09-02T05:27:49.713Z,53.66
2022-09-02T05:28:49.693Z,51.24
2022-09-02T05:29:49.679Z,49.63
2022-09-02T05:30:49.737Z,49.95
2022-09-02T05:31:49.661Z,47.70
2022-09-02T05:32:49.653Z,49.79
2022-09-02T05:33:49.646Z,48.50
2022-09-02T05:34:49.649Z,48.98
2022-09-02T05:35:49.829Z,50.92
2022-09-02T05:36:49.621Z,49.31
2022-09-02T05:37:49.626Z,50.11
2022-09-02T05:38:49.608Z,53.33
2022-09-02T05:39:49.601Z,52.05
2022-09-02T05:40:49.644Z,50.11
2022-09-02T05:41:50.443Z,48.18
2022-09-02T05:42:49.588Z,50.60
2022-09-02T05:43:49.574Z,49.47
2022-09-02T05:44:49.563Z,50.76
2022-09-02T05:45:49.607Z,48.18
2022-09-02T05:46:49.545Z,45.60
2022-09-02T05:47:49.540Z,51.24
2022-09-02T05:48:49.522Z,48.98
2022-09-02T05:49:49.546Z,45.76
2022-09-02T05:50:50.247Z,49.63
2022-09-02T05:51:50.506Z,50.11
2022-09-02T05:52:50.474Z,50.60
2022-09-02T05:53:49.523Z,47.21
2022-09-02T05:54:49.493Z,49.47
2022-09-02T05:55:49.471Z,53.50
2022-09-02T05:56:49.460Z,50.27
2022-09-02T05:57:49.459Z,51.08
2022-09-02T05:58:49.451Z,51.72
2022-09-02T05:59:49.447Z,46.08
2022-09-02T06:00:49.437Z,49.47
2022-09-02T06:01:50.021Z,51.88
2022-09-02T06:02:49.472Z,51.08
2022-09-02T06:03:49.413Z,49.63
2022-09-02T06:04:49.406Z,52.05
2022-09-02T06:05:49.391Z,50.27
2022-09-02T06:06:49.384Z,52.05
2022-09-02T06:07:49.382Z,46.25
2022-09-02T06:08:49.408Z,46.41
2022-09-02T06:09:49.365Z,48.34
2022-09-02T06:10:49.354Z,42.22
2022-09-02T06:11:49.392Z,47.37
2022-09-02T06:12:49.543Z,48.18
2022-09-02T06:13:49.453Z,46.08
2022-09-02T06:14:49.347Z,48.18
2022-09-02T06:15:50.013Z,45.60
2022-09-02T06:16:49.305Z,45.60
2022-09-02T06:17:49.298Z,48.34
2022-09-02T06:18:49.289Z,52.37
2022-09-02T06:19:49.283Z,49.47
2022-09-02T06:20:49.272Z,49.47
2022-09-02T06:21:49.278Z,52.37
2022-09-02T06:22:49.249Z,52.69
2022-09-02T06:23:49.246Z,49.15
2022-09-02T06:24:49.242Z,47.21
2022-09-02T06:25:49.237Z,51.24
2022-09-02T06:26:49.228Z,48.98
2022-09-02T06:27:49.216Z,48.98
2022-09-02T06:28:49.206Z,48.66
2022-09-02T06:29:49.201Z,51.40
2022-09-02T06:30:49.230Z,49.79
2022-09-02T06:31:49.184Z,49.15
2022-09-02T06:32:50.500Z,49.47
2022-09-02T06:33:49.164Z,48.98
2022-09-02T06:34:49.172Z,49.79
2022-09-02T06:35:49.144Z,51.40
2022-09-02T06:36:49.135Z,49.63
2022-09-02T06:37:49.128Z,51.24
2022-09-02T06:38:49.124Z,46.57
2022-09-02T06:39:49.130Z,47.53
2022-09-02T06:40:49.143Z,47.21
2022-09-02T06:41:49.102Z,27.55
2022-09-02T06:42:49.089Z,26.91
2022-09-02T06:43:49.077Z,31.58
2022-09-02T06:44:49.094Z,27.71
2022-09-02T06:45:49.123Z,44.47
2022-09-02T06:46:49.064Z,26.91
2022-09-02T06:47:50.047Z,26.59
2022-09-02T06:48:49.039Z,26.75
2022-09-02T06:49:49.047Z,26.75
2022-09-02T06:50:49.012Z,26.75
2022-09-02T06:51:50.890Z,26.75
2022-09-02T06:52:49.011Z,26.59
2022-09-02T06:53:49.962Z,26.75
2022-09-02T06:54:49.004Z,26.75
2022-09-02T06:55:48.990Z,26.75
2022-09-02T06:56:49.831Z,26.75
2022-09-02T06:57:49.970Z,26.59
2022-09-02T06:58:48.980Z,26.75
2022-09-02T06:59:48.953Z,26.91
2022-09-02T07:00:48.957Z,26.75
2022-09-02T07:01:49.163Z,26.75
2022-09-02T07:02:48.934Z,26.75
2022-09-02T07:03:48.929Z,26.91
2022-09-02T07:04:48.919Z,26.75
2022-09-02T07:05:48.916Z,26.91
2022-09-02T07:06:48.903Z,26.75
2022-09-02T07:07:48.906Z,26.59
2022-09-02T07:08:48.896Z,27.07
2022-09-02T07:09:48.879Z,26.91
2022-09-02T07:10:48.871Z,26.75
2022-09-02T07:11:48.853Z,26.75
2022-09-02T07:12:48.865Z,26.75
2022-09-02T07:13:48.840Z,26.91
2022-09-02T07:14:48.829Z,26.91
2022-09-02T07:15:48.840Z,26.59
2022-09-02T07:16:48.849Z,26.75
2022-09-02T07:17:48.802Z,26.75
2022-09-02T07:18:48.796Z,26.91
2022-09-02T07:19:48.792Z,26.75
2022-09-02T07:20:48.785Z,26.91
2022-09-02T07:21:48.802Z,26.75
2022-09-02T07:22:48.824Z,27.07
2022-09-02T07:23:48.762Z,26.75
2022-09-02T07:24:48.755Z,26.75
2022-09-02T07:25:48.750Z,26.91
2022-09-02T07:26:48.742Z,26.75
2022-09-02T07:27:48.731Z,26.59
2022-09-02T07:28:48.726Z,26.75
2022-09-02T07:29:48.727Z,26.75
2022-09-02T07:30:48.739Z,26.75
2022-09-02T07:31:48.706Z,26.75
2022-09-02T07:32:48.699Z,26.75
2022-09-02T07:33:50.164Z,26.91
2022-09-02T07:34:48.699Z,26.75
2022-09-02T07:35:48.684Z,26.75
2022-09-02T07:36:48.687Z,26.75
2022-09-02T07:37:48.656Z,26.59
2022-09-02T07:38:48.654Z,27.07
2022-09-02T07:39:48.651Z,26.59
2022-09-02T07:40:48.660Z,26.75
2022-09-02T07:41:48.635Z,26.59
2022-09-02T07:42:48.659Z,26.75
2022-09-02T07:43:51.137Z,26.75
2022-09-02T07:44:48.601Z,26.75
2022-09-02T07:45:48.667Z,26.75
2022-09-02T07:46:48.589Z,26.75
2022-09-02T07:47:48.582Z,26.59
2022-09-02T07:48:48.564Z,26.75
2022-09-02T07:50:50.561Z,26.59
2022-09-02T07:51:49.486Z,26.75
2022-09-02T07:52:48.549Z,26.59
2022-09-02T07:53:48.532Z,26.75
2022-09-02T07:54:48.528Z,26.91
2022-09-02T07:55:48.521Z,26.59
2022-09-02T07:56:48.510Z,26.75
2022-09-02T07:57:48.500Z,26.75
2022-09-02T07:58:48.489Z,26.59
2022-09-02T07:59:48.485Z,26.91
2022-09-02T08:00:48.481Z,26.75
2022-09-02T08:01:49.470Z,26.75
2022-09-02T08:02:48.587Z,26.75
2022-09-02T08:03:48.452Z,26.75
2022-09-02T08:04:48.445Z,26.75
2022-09-02T08:05:48.450Z,26.75
2022-09-02T08:06:48.432Z,26.75
2022-09-02T08:07:48.424Z,26.59
2022-09-02T08:08:48.411Z,26.91
2022-09-02T08:09:48.406Z,26.91
2022-09-02T08:10:48.422Z,26.75
2022-09-02T08:11:48.988Z,26.75
2022-09-02T08:12:48.401Z,26.75
2022-09-02T08:13:48.361Z,26.59
2022-09-02T08:14:49.391Z,26.91
2022-09-02T08:15:50.846Z,26.59
2022-09-02T08:16:48.410Z,25.94
2022-09-02T08:17:48.353Z,26.91
2022-09-02T08:18:48.334Z,26.91
2022-09-02T08:19:48.330Z,26.75
2022-09-02T08:20:48.324Z,26.75
2022-09-02T08:21:48.326Z,26.59
2022-09-02T08:22:54.644Z,26.75
2022-09-02T08:23:49.298Z,26.75
2022-09-02T08:24:48.318Z,26.91
2022-09-02T08:25:48.283Z,26.75
2022-09-02T08:26:48.275Z,26.75
2022-09-02T08:27:48.301Z,26.75
2022-09-02T08:28:48.995Z,26.75
2022-09-02T08:29:48.241Z,26.75
2022-09-02T08:30:48.231Z,26.75
2022-09-02T08:31:49.688Z,26.91
2022-09-02T08:32:49.221Z,26.91
2022-09-02T08:33:48.222Z,26.43
2022-09-02T08:34:48.237Z,27.07
2022-09-02T08:35:48.211Z,26.75
2022-09-02T08:36:56.331Z,26.75
2022-09-02T08:37:49.179Z,26.75
2022-09-02T08:38:48.180Z,26.91
2022-09-02T08:39:49.169Z,26.59
2022-09-02T08:40:48.231Z,26.75
2022-09-02T08:41:48.199Z,26.75
2022-09-02T08:42:51.095Z,26.75
2022-09-02T08:43:48.136Z,26.91
2022-09-02T08:44:48.138Z,26.75
2022-09-02T08:45:48.217Z,26.91
2022-09-02T08:46:48.121Z,26.75
2022-09-02T08:47:48.108Z,26.91
2022-09-02T08:48:48.098Z,26.59
2022-09-02T08:49:48.085Z,26.75
2022-09-02T08:50:48.085Z,26.91
2022-09-02T08:51:48.074Z,26.91
2022-09-02T08:52:48.070Z,26.91
2022-09-02T08:53:48.053Z,26.75
2022-09-02T08:54:48.052Z,26.75
2022-09-02T08:55:48.046Z,27.07
2022-09-02T08:56:48.047Z,26.75
2022-09-02T08:57:48.024Z,26.91
2022-09-02T08:58:48.014Z,26.75
2022-09-02T08:59:48.014Z,26.59
2022-09-02T09:00:48.056Z,26.91
2022-09-02T09:01:48.059Z,26.91
2022-09-02T09:02:48.054Z,26.75
2022-09-02T09:03:48.003Z,26.75
2022-09-02T09:04:47.979Z,26.91
2022-09-02T09:05:47.958Z,26.75
2022-09-02T09:06:47.967Z,26.75
2022-09-02T09:07:47.969Z,26.75
2022-09-02T09:08:47.947Z,26.75
2022-09-02T09:09:47.935Z,26.75
2022-09-02T09:10:47.927Z,26.59
2022-09-02T09:11:47.913Z,26.91
2022-09-02T09:12:48.430Z,26.75
2022-09-02T09:13:47.893Z,26.91
2022-09-02T09:14:47.885Z,26.59
2022-09-02T09:15:47.878Z,26.75
2022-09-02T09:16:47.912Z,26.91
2022-09-02T09:17:47.869Z,26.91
2022-09-02T09:18:47.854Z,26.91
2022-09-02T09:19:47.851Z,26.91
2022-09-02T09:20:47.839Z,26.91
2022-09-02T09:21:47.829Z,26.91
2022-09-02T09:22:47.828Z,26.26
2022-09-02T09:23:47.811Z,26.75
2022-09-02T09:24:47.805Z,26.91
2022-09-02T09:25:47.793Z,26.59
2022-09-02T09:26:47.790Z,26.75
2022-09-02T09:27:47.796Z,27.07
2022-09-02T09:28:47.777Z,26.75
2022-09-02T09:29:47.764Z,26.91
2022-09-02T09:30:47.964Z,26.75
2022-09-02T09:31:47.806Z,26.59
2022-09-02T09:32:47.744Z,26.75
2022-09-02T09:33:47.730Z,26.75
2022-09-02T09:34:47.748Z,26.91
2022-09-02T09:35:47.719Z,26.75
2022-09-02T09:36:48.537Z,26.91
2022-09-02T09:37:47.705Z,26.91
2022-09-02T09:38:47.697Z,26.91
2022-09-02T09:39:47.694Z,27.07
2022-09-02T09:40:47.697Z,27.07
2022-09-02T09:41:47.681Z,26.75
2022-09-02T09:42:49.882Z,26.75
2022-09-02T09:43:48.658Z,26.91
2022-09-02T09:44:47.647Z,26.91
2022-09-02T09:45:47.801Z,26.91
2022-09-02T09:46:47.632Z,26.75
2022-09-02T09:47:47.629Z,26.75
2022-09-02T09:48:48.621Z,26.91
2022-09-02T09:49:47.607Z,26.75
2022-09-02T09:50:48.525Z,26.91
2022-09-02T09:51:49.898Z,26.91
2022-09-02T09:52:47.593Z,26.75
2022-09-02T09:53:47.598Z,26.91
2022-09-02T09:54:47.568Z,26.75
2022-09-02T09:55:47.565Z,26.75
2022-09-02T09:56:47.573Z,27.07
2022-09-02T09:57:47.568Z,26.75
2022-09-02T09:58:47.543Z,26.91
2022-09-02T09:59:47.554Z,26.75
2022-09-02T10:00:47.553Z,26.75
2022-09-02T10:01:47.540Z,26.91
2022-09-02T10:02:47.504Z,26.91
2022-09-02T10:03:47.508Z,26.75
2022-09-02T10:04:47.504Z,26.75
2022-09-02T10:05:47.500Z,26.75
2022-09-02T10:06:47.470Z,26.91
2022-09-02T10:07:47.495Z,26.75
2022-09-02T10:08:47.488Z,26.91
2022-09-02T10:09:47.461Z,27.07
2022-09-02T10:10:47.475Z,26.91
2022-09-02T10:11:47.454Z,26.75
2022-09-02T10:12:47.426Z,26.43
2022-09-02T10:13:47.420Z,26.91
2022-09-02T10:14:47.419Z,26.75
2022-09-02T10:15:47.414Z,26.75
2022-09-02T10:16:47.452Z,27.07
2022-09-02T10:17:47.424Z,26.75
2022-09-02T10:18:49.205Z,26.75
2022-09-02T10:19:48.031Z,26.91
2022-09-02T10:21:04.380Z,26.91
2022-09-02T10:21:49.369Z,26.91
2022-09-02T10:22:59.254Z,26.91
2022-09-02T10:23:48.338Z,26.91
2022-09-02T10:24:47.343Z,26.75
2022-09-02T10:25:47.321Z,27.07
2022-09-02T10:26:47.316Z,26.75
2022-09-02T10:27:47.320Z,26.91
2022-09-02T10:28:47.322Z,26.75
2022-09-02T10:29:47.290Z,26.75
2022-09-02T10:30:47.280Z,26.75
2022-09-02T10:31:47.343Z,26.91
2022-09-02T10:32:47.276Z,26.91
2022-09-02T10:33:47.254Z,26.91
2022-09-02T10:34:47.249Z,26.75
2022-09-02T10:35:47.245Z,26.75
2022-09-02T10:36:47.238Z,27.07
2022-09-02T10:37:47.226Z,26.91
2022-09-02T10:38:47.220Z,26.91
2022-09-02T10:39:47.223Z,26.75
2022-09-02T10:40:47.332Z,26.91
2022-09-02T10:41:47.306Z,27.07
2022-09-02T10:42:47.184Z,26.75
2022-09-02T10:43:47.179Z,26.43
2022-09-02T10:44:47.198Z,26.91
2022-09-02T10:45:47.158Z,26.75
2022-09-02T10:46:48.213Z,26.75
2022-09-02T10:47:47.195Z,26.91
2022-09-02T10:48:47.136Z,26.91
2022-09-02T10:49:47.147Z,26.91
2022-09-02T10:50:49.531Z,26.75
2022-09-02T10:51:47.132Z,26.91
2022-09-02T10:52:47.100Z,26.91
2022-09-02T10:53:48.098Z,26.91
2022-09-02T10:54:47.099Z,26.75
2022-09-02T10:55:47.083Z,26.91
2022-09-02T10:56:47.079Z,26.75
2022-09-02T10:57:47.064Z,26.91
2022-09-02T10:58:47.107Z,26.59
2022-09-02T10:59:47.072Z,26.75
2022-09-02T11:00:47.094Z,27.07
2022-09-02T11:01:47.050Z,26.91
2022-09-02T11:02:47.032Z,26.91
2022-09-02T11:03:47.061Z,27.07
2022-09-02T11:04:47.014Z,26.91
2022-09-02T11:05:47.006Z,26.75
2022-09-02T11:07:01.861Z,27.07
2022-09-02T11:07:49.933Z,26.75
2022-09-02T11:08:46.987Z,26.75
2022-09-02T11:09:46.976Z,26.91
2022-09-02T11:10:46.966Z,26.91
2022-09-02T11:11:46.981Z,26.91
2022-09-02T11:12:46.960Z,26.91
2022-09-02T11:13:46.954Z,26.91
2022-09-02T11:14:46.947Z,26.75
2022-09-02T11:15:47.012Z,26.91
2022-09-02T11:16:46.921Z,26.75
2022-09-02T11:17:46.917Z,26.91
2022-09-02T11:18:46.903Z,26.91
2022-09-02T11:19:46.906Z,26.91
2022-09-02T11:20:46.899Z,27.07
2022-09-02T11:21:46.884Z,26.75
2022-09-02T11:22:46.871Z,26.75
2022-09-02T11:23:46.863Z,26.75
2022-09-02T11:24:46.860Z,26.59
2022-09-02T11:25:46.860Z,26.91
2022-09-02T11:26:46.851Z,26.75
2022-09-02T11:27:46.839Z,26.91
2022-09-02T11:28:46.842Z,26.75
2022-09-02T11:29:46.820Z,26.75
2022-09-02T11:30:46.987Z,26.91
2022-09-02T11:31:46.808Z,26.91
2022-09-02T11:32:46.800Z,26.75
2022-09-02T11:33:46.792Z,26.91
2022-09-02T11:34:46.785Z,26.75
2022-09-02T11:35:46.790Z,27.23
2022-09-02T11:36:46.773Z,26.91
2022-09-02T11:37:46.771Z,26.75
2022-09-02T11:38:46.759Z,27.07
2022-09-02T11:39:54.504Z,27.07
2022-09-02T11:41:32.713Z,26.75
2022-09-02T11:41:48.797Z,27.07
2022-09-02T11:42:46.735Z,26.75
2022-09-02T11:43:47.597Z,26.91
2022-09-02T11:44:52.437Z,26.75
2022-09-02T11:45:47.806Z,26.75
2022-09-02T11:46:46.816Z,26.75
2022-09-02T11:47:46.702Z,26.75
2022-09-02T11:48:46.686Z,27.07
2022-09-02T11:49:46.677Z,26.75
2022-09-02T11:50:46.672Z,26.75
2022-09-02T11:51:46.706Z,26.75
2022-09-02T11:52:46.665Z,26.75
2022-09-02T11:53:46.645Z,26.75
2022-09-02T11:54:46.637Z,26.75
2022-09-02T11:55:46.642Z,27.07
2022-09-02T11:56:46.621Z,26.91
2022-09-02T11:57:46.617Z,26.91
2022-09-02T11:58:46.604Z,26.91
2022-09-02T11:59:46.599Z,26.91
2022-09-02T12:00:46.598Z,26.91
2022-09-02T12:01:46.592Z,26.75
2022-09-02T12:02:46.581Z,26.91
2022-09-02T12:04:16.142Z,26.91
2022-09-02T12:04:59.820Z,26.91
2022-09-02T12:05:50.310Z,26.75
2022-09-02T12:06:46.743Z,26.91
2022-09-02T12:07:46.570Z,26.75
2022-09-02T12:08:46.537Z,26.75
2022-09-02T12:09:46.530Z,26.91
2022-09-02T12:10:46.871Z,26.91
2022-09-02T12:11:46.506Z,26.91
2022-09-02T12:12:49.967Z,26.91
2022-09-02T12:13:46.564Z,26.75
2022-09-02T12:14:46.488Z,26.91
2022-09-02T12:15:46.504Z,26.75
2022-09-02T12:16:46.483Z,27.23
2022-09-02T12:17:46.476Z,26.91
2022-09-02T12:18:46.464Z,27.07
2022-09-02T12:19:46.461Z,26.75
2022-09-02T12:20:51.075Z,26.91
2022-09-02T12:21:48.444Z,27.23
2022-09-02T12:22:46.430Z,26.91
2022-09-02T12:23:46.469Z,26.91
2022-09-02T12:24:46.418Z,26.75
2022-09-02T12:25:46.423Z,26.75
2022-09-02T12:26:46.399Z,26.91
2022-09-02T12:27:46.397Z,26.91
2022-09-02T12:28:46.386Z,26.91
2022-09-02T12:29:46.539Z,27.07
2022-09-02T12:30:46.381Z,26.75
2022-09-02T12:31:46.507Z,26.91
2022-09-02T12:32:46.365Z,26.91
2022-09-02T12:33:46.347Z,26.75
2022-09-02T12:34:46.340Z,26.91
2022-09-02T12:35:46.337Z,27.07
2022-09-02T12:36:46.327Z,26.75
2022-09-02T12:37:46.327Z,26.91
2022-09-02T12:38:46.347Z,26.91
2022-09-02T12:39:46.314Z,26.75
2022-09-02T12:40:46.360Z,26.91
2022-09-02T12:41:46.297Z,26.91
2022-09-02T12:42:48.248Z,26.91
2022-09-02T12:43:46.278Z,27.07
2022-09-02T12:44:46.266Z,26.75
2022-09-02T12:45:46.404Z,26.91
2022-09-02T12:46:46.283Z,26.91
2022-09-02T12:47:46.249Z,26.91
2022-09-02T12:48:46.246Z,27.07
2022-09-02T12:49:46.240Z,26.75
2022-09-02T12:50:46.232Z,26.91
2022-09-02T12:51:46.215Z,26.91
2022-09-02T12:52:46.214Z,26.75
2022-09-02T12:53:46.223Z,26.75
2022-09-02T12:54:46.192Z,26.91